sensor_id;sensor_type;location;lat;lon;timestamp;P1;durP1;ratioP1;P2;durP2;ratioP2
7747;SDS011;3918;42.564;23.164;2023-11-18T05:01:42;18.57;;;17.57;;
7747;SDS011;3918;42.564;23.164;2023-11-18T05:04:09;19.87;;;18.77;;
7747;SDS011;3918;42.564;23.164;2023-11-18T05:06:36;17.20;;;16.37;;
7747;SDS011;3918;42.564;23.164;2023-11-18T05:09:02;17.03;;;16.00;;
7747;SDS011;3918;42.564;23.164;2023-11-18T05:11:32;17.67;;;16.70;;
7747;SDS011;3918;42.564;23.164;2023-11-18T05:13:59;16.13;;;15.33;;
7747;SDS011;3918;42.564;23.164;2023-11-18T05:16:28;14.73;;;13.83;;
7747;SDS011;3918;42.564;23.164;2023-11-18T05:18:56;14.83;;;14.07;;
7747;SDS011;3918;42.564;23.164;2023-11-18T05:21:23;13.17;;;12.57;;
7747;SDS011;3918;42.564;23.164;2023-11-18T05:23:50;14.63;;;13.83;;
7747;SDS011;3918;42.564;23.164;2023-11-18T05:26:17;13.73;;;13.03;;
7747;SDS011;3918;42.564;23.164;2023-11-18T05:28:44;13.50;;;12.80;;
7747;SDS011;3918;42.564;23.164;2023-11-18T05:31:11;12.43;;;11.83;;
7747;SDS011;3918;42.564;23.164;2023-11-18T05:33:37;13.73;;;13.03;;
7747;SDS011;3918;42.564;23.164;2023-11-18T05:36:06;13.20;;;12.50;;
7747;SDS011;3918;42.564;23.164;2023-11-18T05:38:33;13.47;;;12.77;;
7747;SDS011;3918;42.564;23.164;2023-11-18T05:41:01;13.10;;;12.30;;
7747;SDS011;3918;42.564;23.164;2023-11-18T05:43:29;12.73;;;12.13;;
7747;SDS011;3918;42.564;23.164;2023-11-18T05:46:05;14.67;;;13.97;;
7747;SDS011;3918;42.564;23.164;2023-11-18T05:48:45;13.13;;;12.33;;
7747;SDS011;3918;42.564;23.164;2023-11-18T05:51:18;11.83;;;11.23;;
7747;SDS011;3918;42.564;23.164;2023-11-18T05:53:46;11.40;;;10.80;;
7747;SDS011;3918;42.564;23.164;2023-11-18T05:56:13;11.53;;;10.93;;
7747;SDS011;3918;42.564;23.164;2023-11-18T05:58:41;12.13;;;11.33;;
7747;SDS011;3918;42.564;23.164;2023-11-18T06:01:09;12.60;;;12.00;;
7747;SDS011;3918;42.564;23.164;2023-11-18T06:03:36;12.30;;;11.70;;
7747;SDS011;3918;42.564;23.164;2023-11-18T06:06:04;12.20;;;11.60;;
7747;SDS011;3918;42.564;23.164;2023-11-18T06:08:33;10.50;;;10.00;;
7747;SDS011;3918;42.564;23.164;2023-11-18T06:11:00;10.80;;;10.30;;
7747;SDS011;3918;42.564;23.164;2023-11-18T06:13:37;9.30;;;8.90;;
7747;SDS011;3918;42.564;23.164;2023-11-18T06:16:07;9.13;;;8.73;;
7747;SDS011;3918;42.564;23.164;2023-11-18T06:18:39;10.47;;;9.97;;
7747;SDS011;3918;42.564;23.164;2023-11-18T06:21:10;10.47;;;9.97;;
7747;SDS011;3918;42.564;23.164;2023-11-18T06:23:39;9.43;;;9.03;;
7747;SDS011;3918;42.564;23.164;2023-11-18T06:26:05;9.33;;;8.93;;
7747;SDS011;3918;42.564;23.164;2023-11-18T06:28:32;10.33;;;9.90;;
7747;SDS011;3918;42.564;23.164;2023-11-18T06:31:00;9.90;;;9.50;;
7747;SDS011;3918;42.564;23.164;2023-11-18T06:33:27;9.20;;;8.80;;
7747;SDS011;3918;42.564;23.164;2023-11-18T06:35:54;12.40;;;11.70;;
7747;SDS011;3918;42.564;23.164;2023-11-18T06:38:21;13.17;;;12.47;;
7747;SDS011;3918;42.564;23.164;2023-11-18T06:40:50;13.60;;;13.00;;
7747;SDS011;3918;42.564;23.164;2023-11-18T06:43:18;13.60;;;13.00;;
7747;SDS011;3918;42.564;23.164;2023-11-18T06:45:45;14.00;;;13.20;;
7747;SDS011;3918;42.564;23.164;2023-11-18T06:48:14;13.10;;;12.50;;
7747;SDS011;3918;42.564;23.164;2023-11-18T06:50:45;12.95;;;12.35;;
7747;SDS011;3918;42.564;23.164;2023-11-18T06:53:12;13.53;;;12.80;;
7747;SDS011;3918;42.564;23.164;2023-11-18T06:55:40;13.40;;;12.70;;
7747;SDS011;3918;42.564;23.164;2023-11-18T06:58:10;12.83;;;12.13;;
7747;SDS011;3918;42.564;23.164;2023-11-18T07:00:38;12.20;;;11.60;;
7747;SDS011;3918;42.564;23.164;2023-11-18T07:03:05;11.83;;;11.33;;
7747;SDS011;3918;42.564;23.164;2023-11-18T07:05:31;11.73;;;11.13;;
7747;SDS011;3918;42.564;23.164;2023-11-18T07:07:58;10.57;;;10.07;;
7747;SDS011;3918;42.564;23.164;2023-11-18T07:10:25;11.20;;;10.70;;
7747;SDS011;3918;42.564;23.164;2023-11-18T07:12:53;11.37;;;10.83;;
7747;SDS011;3918;42.564;23.164;2023-11-18T07:15:21;9.03;;;8.63;;
7747;SDS011;3918;42.564;23.164;2023-11-18T07:17:48;9.03;;;8.63;;
7747;SDS011;3918;42.564;23.164;2023-11-18T07:20:16;8.40;;;8.00;;
7747;SDS011;3918;42.564;23.164;2023-11-18T07:22:43;8.00;;;7.70;;
7747;SDS011;3918;42.564;23.164;2023-11-18T07:25:10;8.00;;;7.70;;
7747;SDS011;3918;42.564;23.164;2023-11-18T07:27:37;7.50;;;7.20;;
7747;SDS011;3918;42.564;23.164;2023-11-18T07:30:04;7.37;;;6.83;;
7747;SDS011;3918;42.564;23.164;2023-11-18T07:32:37;7.10;;;6.90;;
7747;SDS011;3918;42.564;23.164;2023-11-18T07:35:05;8.47;;;8.17;;
7747;SDS011;3918;42.564;23.164;2023-11-18T07:37:34;7.47;;;7.20;;
7747;SDS011;3918;42.564;23.164;2023-11-18T07:40:02;7.23;;;7.00;;
7747;SDS011;3918;42.564;23.164;2023-11-18T07:42:30;6.90;;;6.70;;
7747;SDS011;3918;42.564;23.164;2023-11-18T07:44:59;7.57;;;7.27;;
7747;SDS011;3918;42.564;23.164;2023-11-18T07:47:28;7.40;;;7.10;;
7747;SDS011;3918;42.564;23.164;2023-11-18T07:49:58;7.40;;;7.10;;
7747;SDS011;3918;42.564;23.164;2023-11-18T07:52:26;8.43;;;8.13;;
7747;SDS011;3918;42.564;23.164;2023-11-18T07:54:54;8.17;;;7.87;;
7747;SDS011;3918;42.564;23.164;2023-11-18T07:57:21;8.00;;;7.70;;
7747;SDS011;3918;42.564;23.164;2023-11-18T07:59:49;9.30;;;8.90;;
7747;SDS011;3918;42.564;23.164;2023-11-18T08:02:16;8.03;;;7.73;;
7747;SDS011;3918;42.564;23.164;2023-11-18T08:04:45;9.13;;;8.73;;
7747;SDS011;3918;42.564;23.164;2023-11-18T08:07:13;9.00;;;8.60;;
7747;SDS011;3918;42.564;23.164;2023-11-18T08:09:42;8.53;;;8.13;;
7747;SDS011;3918;42.564;23.164;2023-11-18T08:12:10;8.43;;;8.03;;
7747;SDS011;3918;42.564;23.164;2023-11-18T08:14:37;8.03;;;7.67;;
7747;SDS011;3918;42.564;23.164;2023-11-18T08:17:03;9.10;;;8.60;;
7747;SDS011;3918;42.564;23.164;2023-11-18T08:19:31;9.70;;;9.20;;
7747;SDS011;3918;42.564;23.164;2023-11-18T08:21:59;9.20;;;8.70;;
7747;SDS011;3918;42.564;23.164;2023-11-18T08:24:27;8.30;;;7.97;;
7747;SDS011;3918;42.564;23.164;2023-11-18T08:26:55;10.10;;;9.70;;
7747;SDS011;3918;42.564;23.164;2023-11-18T08:29:21;10.37;;;9.87;;
7747;SDS011;3918;42.564;23.164;2023-11-18T08:31:49;9.83;;;9.43;;
7747;SDS011;3918;42.564;23.164;2023-11-18T08:34:16;10.63;;;10.13;;
7747;SDS011;3918;42.564;23.164;2023-11-18T08:36:43;10.17;;;9.77;;
7747;SDS011;3918;42.564;23.164;2023-11-18T08:39:10;10.33;;;9.83;;
7747;SDS011;3918;42.564;23.164;2023-11-18T08:41:40;12.23;;;11.63;;
7747;SDS011;3918;42.564;23.164;2023-11-18T08:44:09;12.40;;;11.80;;
7747;SDS011;3918;42.564;23.164;2023-11-18T08:46:38;9.13;;;8.73;;
7747;SDS011;3918;42.564;23.164;2023-11-18T08:49:05;9.50;;;9.00;;
7747;SDS011;3918;42.564;23.164;2023-11-18T08:51:36;10.13;;;9.67;;
7747;SDS011;3918;42.564;23.164;2023-11-18T08:54:03;8.40;;;8.00;;
7747;SDS011;3918;42.564;23.164;2023-11-18T08:56:48;8.87;;;8.47;;
7747;SDS011;3918;42.564;23.164;2023-11-18T08:59:18;8.97;;;8.57;;
7747;SDS011;3918;42.564;23.164;2023-11-18T09:01:50;9.50;;;9.03;;
7747;SDS011;3918;42.564;23.164;2023-11-18T09:04:21;9.60;;;9.10;;
7747;SDS011;3918;42.564;23.164;2023-11-18T09:06:50;10.40;;;9.90;;
7747;SDS011;3918;42.564;23.164;2023-11-18T09:09:19;10.33;;;9.83;;
7747;SDS011;3918;42.564;23.164;2023-11-18T09:11:53;10.53;;;10.07;;
7747;SDS011;3918;42.564;23.164;2023-11-18T09:14:21;10.80;;;10.20;;
7747;SDS011;3918;42.564;23.164;2023-11-18T09:16:49;10.10;;;9.60;;
7747;SDS011;3918;42.564;23.164;2023-11-18T09:19:16;10.70;;;10.20;;
7747;SDS011;3918;42.564;23.164;2023-11-18T09:21:42;10.07;;;9.57;;
7747;SDS011;3918;42.564;23.164;2023-11-18T09:24:09;10.17;;;9.70;;
7747;SDS011;3918;42.564;23.164;2023-11-18T09:26:39;9.80;;;9.27;;
7747;SDS011;3918;42.564;23.164;2023-11-18T09:29:07;10.13;;;9.63;;
7747;SDS011;3918;42.564;23.164;2023-11-18T09:31:34;9.97;;;9.37;;
7747;SDS011;3918;42.564;23.164;2023-11-18T09:34:02;10.43;;;10.03;;
7747;SDS011;3918;42.564;23.164;2023-11-18T09:36:31;9.03;;;8.53;;
7747;SDS011;3918;42.564;23.164;2023-11-18T09:38:59;9.17;;;8.77;;
7747;SDS011;3918;42.564;23.164;2023-11-18T09:41:28;8.00;;;7.70;;
7747;SDS011;3918;42.564;23.164;2023-11-18T09:43:56;9.43;;;9.03;;
7747;SDS011;3918;42.564;23.164;2023-11-18T09:46:29;7.70;;;7.40;;
7747;SDS011;3918;42.564;23.164;2023-11-18T09:49:00;11.50;;;10.93;;
7747;SDS011;3918;42.564;23.164;2023-11-18T09:51:41;7.97;;;7.60;;
7747;SDS011;3918;42.564;23.164;2023-11-18T09:54:14;10.37;;;9.87;;
7747;SDS011;3918;42.564;23.164;2023-11-18T09:56:51;7.80;;;7.50;;
7747;SDS011;3918;42.564;23.164;2023-11-18T09:59:23;6.67;;;6.37;;
7747;SDS011;3918;42.564;23.164;2023-11-18T10:02:02;7.57;;;7.27;;
7747;SDS011;3918;42.564;23.164;2023-11-18T10:04:30;6.93;;;6.63;;
7747;SDS011;3918;42.564;23.164;2023-11-18T10:06:57;7.87;;;7.57;;
7747;SDS011;3918;42.564;23.164;2023-11-18T10:09:27;6.83;;;6.53;;
7747;SDS011;3918;42.564;23.164;2023-11-18T10:12:02;6.57;;;6.28;;
7747;SDS011;3918;42.564;23.164;2023-11-18T10:14:31;7.20;;;6.90;;
7747;SDS011;3918;42.564;23.164;2023-11-18T10:16:58;7.17;;;6.87;;
7747;SDS011;3918;42.564;23.164;2023-11-18T10:22:24;6.00;;;5.60;;
7747;SDS011;3918;42.564;23.164;2023-11-18T10:24:52;6.40;;;6.10;;
7747;SDS011;3918;42.564;23.164;2023-11-18T10:27:21;7.33;;;6.93;;
7747;SDS011;3918;42.564;23.164;2023-11-18T10:29:50;8.00;;;7.60;;
7747;SDS011;3918;42.564;23.164;2023-11-18T10:32:25;7.43;;;7.13;;
7747;SDS011;3918;42.564;23.164;2023-11-18T10:34:54;6.23;;;5.93;;
7747;SDS011;3918;42.564;23.164;2023-11-18T10:37:22;5.90;;;5.70;;
7747;SDS011;3918;42.564;23.164;2023-11-18T10:39:49;5.90;;;5.60;;
7747;SDS011;3918;42.564;23.164;2023-11-18T10:42:16;5.23;;;5.03;;
7747;SDS011;3918;42.564;23.164;2023-11-18T10:47:34;6.50;;;6.10;;
7747;SDS011;3918;42.564;23.164;2023-11-18T10:50:05;5.87;;;5.57;;
7747;SDS011;3918;42.564;23.164;2023-11-18T10:52:35;5.83;;;5.53;;
7747;SDS011;3918;42.564;23.164;2023-11-18T10:55:06;5.10;;;4.90;;
7747;SDS011;3918;42.564;23.164;2023-11-18T10:57:36;4.90;;;4.70;;
7747;SDS011;3918;42.564;23.164;2023-11-18T11:00:05;5.50;;;5.10;;
7747;SDS011;3918;42.564;23.164;2023-11-18T11:02:38;4.40;;;4.30;;
7747;SDS011;3918;42.564;23.164;2023-11-18T11:05:08;4.90;;;4.70;;
7747;SDS011;3918;42.564;23.164;2023-11-18T11:07:40;4.68;;;4.45;;
7747;SDS011;3918;42.564;23.164;2023-11-18T11:10:08;4.87;;;4.57;;
7747;SDS011;3918;42.564;23.164;2023-11-18T11:12:37;3.80;;;3.70;;
7747;SDS011;3918;42.564;23.164;2023-11-18T11:15:18;4.00;;;3.80;;
7747;SDS011;3918;42.564;23.164;2023-11-18T11:17:50;4.23;;;4.13;;
7747;SDS011;3918;42.564;23.164;2023-11-18T11:20:22;3.70;;;3.60;;
7747;SDS011;3918;42.564;23.164;2023-11-18T11:22:59;4.43;;;4.23;;
7747;SDS011;3918;42.564;23.164;2023-11-18T11:25:35;4.63;;;4.33;;
7747;SDS011;3918;42.564;23.164;2023-11-18T11:28:10;4.83;;;4.33;;
7747;SDS011;3918;42.564;23.164;2023-11-18T11:30:45;5.13;;;4.73;;
7747;SDS011;3918;42.564;23.164;2023-11-18T11:33:19;3.67;;;3.57;;
7747;SDS011;3918;42.564;23.164;2023-11-18T11:35:55;3.83;;;3.73;;
7747;SDS011;3918;42.564;23.164;2023-11-18T11:38:23;4.20;;;4.00;;
7747;SDS011;3918;42.564;23.164;2023-11-18T11:40:52;7.03;;;5.60;;
7747;SDS011;3918;42.564;23.164;2023-11-18T11:43:20;4.10;;;4.00;;
7747;SDS011;3918;42.564;23.164;2023-11-18T11:45:48;3.10;;;3.00;;
7747;SDS011;3918;42.564;23.164;2023-11-18T11:48:17;3.87;;;3.77;;
7747;SDS011;3918;42.564;23.164;2023-11-18T11:50:57;4.00;;;3.90;;
7747;SDS011;3918;42.564;23.164;2023-11-18T11:53:39;4.63;;;4.33;;
7747;SDS011;3918;42.564;23.164;2023-11-18T11:56:10;4.00;;;3.80;;
7747;SDS011;3918;42.564;23.164;2023-11-18T11:58:40;4.13;;;3.93;;
7747;SDS011;3918;42.564;23.164;2023-11-18T12:01:27;4.70;;;4.40;;
7747;SDS011;3918;42.564;23.164;2023-11-18T12:04:00;4.73;;;4.53;;
7747;SDS011;3918;42.564;23.164;2023-11-18T12:06:33;3.90;;;3.80;;
7747;SDS011;3918;42.564;23.164;2023-11-18T12:09:04;3.77;;;3.67;;
7747;SDS011;3918;42.564;23.164;2023-11-18T12:11:33;4.57;;;4.37;;
7747;SDS011;3918;42.564;23.164;2023-11-18T12:14:05;4.93;;;4.73;;
7747;SDS011;3918;42.564;23.164;2023-11-18T12:17:00;4.50;;;4.30;;
7747;SDS011;3918;42.564;23.164;2023-11-18T12:19:34;4.10;;;4.00;;
7747;SDS011;3918;42.564;23.164;2023-11-18T12:22:20;4.32;;;4.22;;
7747;SDS011;3918;42.564;23.164;2023-11-18T12:28:14;4.37;;;4.20;;
7747;SDS011;3918;42.564;23.164;2023-11-18T12:30:46;4.30;;;4.20;;
7747;SDS011;3918;42.564;23.164;2023-11-18T12:33:22;4.60;;;4.33;;
7747;SDS011;3918;42.564;23.164;2023-11-18T12:42:23;4.70;;;4.50;;
7747;SDS011;3918;42.564;23.164;2023-11-18T12:45:22;6.67;;;5.00;;
7747;SDS011;3918;42.564;23.164;2023-11-18T12:48:09;3.87;;;3.77;;
7747;SDS011;3918;42.564;23.164;2023-11-18T12:50:41;3.33;;;3.23;;
7747;SDS011;3918;42.564;23.164;2023-11-18T12:53:11;4.10;;;3.90;;
7747;SDS011;3918;42.564;23.164;2023-11-18T12:55:41;3.50;;;3.33;;
7747;SDS011;3918;42.564;23.164;2023-11-18T12:58:08;3.37;;;3.27;;
7747;SDS011;3918;42.564;23.164;2023-11-18T13:00:37;3.50;;;3.40;;
7747;SDS011;3918;42.564;23.164;2023-11-18T13:03:08;3.77;;;3.67;;
7747;SDS011;3918;42.564;23.164;2023-11-18T13:05:36;3.50;;;3.40;;
7747;SDS011;3918;42.564;23.164;2023-11-18T13:08:03;3.80;;;3.70;;
7747;SDS011;3918;42.564;23.164;2023-11-18T13:10:32;3.90;;;3.70;;
7747;SDS011;3918;42.564;23.164;2023-11-18T13:13:03;4.13;;;3.93;;
7747;SDS011;3918;42.564;23.164;2023-11-18T13:15:34;4.50;;;4.30;;
7747;SDS011;3918;42.564;23.164;2023-11-18T13:18:01;3.30;;;3.20;;
7747;SDS011;3918;42.564;23.164;2023-11-18T13:20:31;4.03;;;3.83;;
7747;SDS011;3918;42.564;23.164;2023-11-18T13:23:00;3.83;;;3.63;;
7747;SDS011;3918;42.564;23.164;2023-11-18T13:25:33;3.90;;;3.70;;
7747;SDS011;3918;42.564;23.164;2023-11-18T13:28:00;3.73;;;3.53;;
7747;SDS011;3918;42.564;23.164;2023-11-18T13:30:30;3.80;;;3.60;;
7747;SDS011;3918;42.564;23.164;2023-11-18T13:32:56;3.30;;;3.20;;
7747;SDS011;3918;42.564;23.164;2023-11-18T13:35:23;3.93;;;3.80;;
7747;SDS011;3918;42.564;23.164;2023-11-18T13:37:50;4.13;;;3.87;;
7747;SDS011;3918;42.564;23.164;2023-11-18T13:40:18;3.50;;;3.40;;
7747;SDS011;3918;42.564;23.164;2023-11-18T13:42:46;4.07;;;3.90;;
7747;SDS011;3918;42.564;23.164;2023-11-18T13:45:14;4.13;;;3.93;;
7747;SDS011;3918;42.564;23.164;2023-11-18T13:47:49;4.10;;;3.90;;
7747;SDS011;3918;42.564;23.164;2023-11-18T13:50:18;4.00;;;3.80;;
7747;SDS011;3918;42.564;23.164;2023-11-18T13:52:46;4.13;;;3.90;;
7747;SDS011;3918;42.564;23.164;2023-11-18T13:55:14;3.70;;;3.60;;
7747;SDS011;3918;42.564;23.164;2023-11-18T13:57:50;3.97;;;3.77;;
7747;SDS011;3918;42.564;23.164;2023-11-18T14:00:22;3.33;;;3.13;;
7747;SDS011;3918;42.564;23.164;2023-11-18T14:02:53;4.20;;;4.00;;
7747;SDS011;3918;42.564;23.164;2023-11-18T14:05:23;3.83;;;3.63;;
7747;SDS011;3918;42.564;23.164;2023-11-18T14:07:51;4.10;;;3.90;;
7747;SDS011;3918;42.564;23.164;2023-11-18T14:10:21;4.13;;;3.93;;
7747;SDS011;3918;42.564;23.164;2023-11-18T14:12:59;4.20;;;4.00;;
7747;SDS011;3918;42.564;23.164;2023-11-18T14:15:29;4.60;;;4.40;;
7747;SDS011;3918;42.564;23.164;2023-11-18T14:17:56;4.87;;;4.50;;
7747;SDS011;3918;42.564;23.164;2023-11-18T14:20:23;4.43;;;4.23;;
7747;SDS011;3918;42.564;23.164;2023-11-18T14:22:49;4.63;;;4.43;;
7747;SDS011;3918;42.564;23.164;2023-11-18T14:25:17;5.60;;;5.00;;
7747;SDS011;3918;42.564;23.164;2023-11-18T14:27:45;5.80;;;5.50;;
7747;SDS011;3918;42.564;23.164;2023-11-18T14:30:13;5.10;;;4.77;;
7747;SDS011;3918;42.564;23.164;2023-11-18T14:32:44;4.03;;;3.87;;
7747;SDS011;3918;42.564;23.164;2023-11-18T14:35:11;4.03;;;3.83;;
7747;SDS011;3918;42.564;23.164;2023-11-18T14:37:42;4.30;;;3.97;;
7747;SDS011;3918;42.564;23.164;2023-11-18T14:40:10;4.40;;;4.20;;
7747;SDS011;3918;42.564;23.164;2023-11-18T14:42:40;4.87;;;4.47;;
7747;SDS011;3918;42.564;23.164;2023-11-18T14:45:09;4.17;;;3.97;;
7747;SDS011;3918;42.564;23.164;2023-11-18T14:47:38;4.10;;;3.90;;
7747;SDS011;3918;42.564;23.164;2023-11-18T14:50:07;4.07;;;3.87;;
7747;SDS011;3918;42.564;23.164;2023-11-18T14:52:42;4.33;;;4.03;;
7747;SDS011;3918;42.564;23.164;2023-11-18T14:55:10;4.87;;;4.57;;
7747;SDS011;3918;42.564;23.164;2023-11-18T14:57:38;4.67;;;4.37;;
7747;SDS011;3918;42.564;23.164;2023-11-18T15:00:06;3.60;;;3.40;;
7747;SDS011;3918;42.564;23.164;2023-11-18T15:02:43;4.30;;;4.00;;
7747;SDS011;3918;42.564;23.164;2023-11-18T15:05:13;3.53;;;3.23;;
7747;SDS011;3918;42.564;23.164;2023-11-18T15:07:43;4.10;;;3.70;;
7747;SDS011;3918;42.564;23.164;2023-11-18T15:10:12;3.63;;;3.43;;
7747;SDS011;3918;42.564;23.164;2023-11-18T15:12:44;4.20;;;4.00;;
7747;SDS011;3918;42.564;23.164;2023-11-18T15:15:12;3.80;;;3.70;;
7747;SDS011;3918;42.564;23.164;2023-11-18T15:17:43;5.27;;;3.47;;
7747;SDS011;3918;42.564;23.164;2023-11-18T15:20:11;3.88;;;3.67;;
7747;SDS011;3918;42.564;23.164;2023-11-18T15:22:41;4.20;;;4.00;;
7747;SDS011;3918;42.564;23.164;2023-11-18T15:25:11;4.10;;;3.70;;
7747;SDS011;3918;42.564;23.164;2023-11-18T15:27:39;3.53;;;3.43;;
7747;SDS011;3918;42.564;23.164;2023-11-18T15:30:07;4.30;;;4.10;;
7747;SDS011;3918;42.564;23.164;2023-11-18T15:32:37;4.47;;;4.20;;
7747;SDS011;3918;42.564;23.164;2023-11-18T15:35:04;3.93;;;3.83;;
7747;SDS011;3918;42.564;23.164;2023-11-18T15:37:34;4.53;;;4.33;;
7747;SDS011;3918;42.564;23.164;2023-11-18T15:40:03;4.33;;;4.13;;
7747;SDS011;3918;42.564;23.164;2023-11-18T15:42:36;5.47;;;4.50;;
7747;SDS011;3918;42.564;23.164;2023-11-18T15:45:04;3.73;;;3.60;;
7747;SDS011;3918;42.564;23.164;2023-11-18T15:47:35;4.60;;;4.30;;
7747;SDS011;3918;42.564;23.164;2023-11-18T15:50:04;4.40;;;4.17;;
7747;SDS011;3918;42.564;23.164;2023-11-18T15:52:32;3.77;;;3.57;;
7747;SDS011;3918;42.564;23.164;2023-11-18T15:55:00;4.30;;;4.10;;
7747;SDS011;3918;42.564;23.164;2023-11-18T15:57:29;4.07;;;3.80;;
7747;SDS011;3918;42.564;23.164;2023-11-18T15:59:56;4.67;;;4.47;;
7747;SDS011;3918;42.564;23.164;2023-11-18T16:02:22;4.97;;;4.70;;
7747;SDS011;3918;42.564;23.164;2023-11-18T16:04:50;5.30;;;5.00;;
7747;SDS011;3918;42.564;23.164;2023-11-18T16:07:17;6.00;;;5.67;;
7747;SDS011;3918;42.564;23.164;2023-11-18T16:09:43;5.20;;;4.90;;
7747;SDS011;3918;42.564;23.164;2023-11-18T16:12:10;5.43;;;5.13;;
7747;SDS011;3918;42.564;23.164;2023-11-18T16:14:39;4.97;;;4.67;;
7747;SDS011;3918;42.564;23.164;2023-11-18T16:17:06;5.00;;;4.70;;
7747;SDS011;3918;42.564;23.164;2023-11-18T16:19:33;4.47;;;4.27;;
7747;SDS011;3918;42.564;23.164;2023-11-18T16:22:00;4.90;;;4.60;;
7747;SDS011;3918;42.564;23.164;2023-11-18T16:24:28;4.73;;;4.43;;
7747;SDS011;3918;42.564;23.164;2023-11-18T16:26:55;4.60;;;4.30;;
7747;SDS011;3918;42.564;23.164;2023-11-18T16:29:22;5.70;;;5.30;;
7747;SDS011;3918;42.564;23.164;2023-11-18T16:31:50;4.50;;;4.30;;
7747;SDS011;3918;42.564;23.164;2023-11-18T16:34:17;4.80;;;4.50;;
7747;SDS011;3918;42.564;23.164;2023-11-18T16:36:45;5.10;;;4.80;;
7747;SDS011;3918;42.564;23.164;2023-11-18T16:39:13;4.13;;;3.83;;
7747;SDS011;3918;42.564;23.164;2023-11-18T16:41:40;3.90;;;3.70;;
7747;SDS011;3918;42.564;23.164;2023-11-18T16:44:07;3.37;;;3.17;;
7747;SDS011;3918;42.564;23.164;2023-11-18T16:46:36;3.77;;;3.47;;
7747;SDS011;3918;42.564;23.164;2023-11-18T16:49:06;3.50;;;3.30;;
7747;SDS011;3918;42.564;23.164;2023-11-18T16:51:33;3.57;;;3.27;;
7747;SDS011;3918;42.564;23.164;2023-11-18T16:54:00;3.03;;;2.83;;
7747;SDS011;3918;42.564;23.164;2023-11-18T16:56:28;2.93;;;2.73;;
7747;SDS011;3918;42.564;23.164;2023-11-18T16:58:55;2.87;;;2.70;;
7747;SDS011;3918;42.564;23.164;2023-11-18T17:01:22;3.40;;;3.10;;
7747;SDS011;3918;42.564;23.164;2023-11-18T17:03:49;2.60;;;2.40;;
7747;SDS011;3918;42.564;23.164;2023-11-18T17:06:18;4.40;;;2.87;;
7747;SDS011;3918;42.564;23.164;2023-11-18T17:08:45;2.97;;;2.77;;
7747;SDS011;3918;42.564;23.164;2023-11-18T17:11:12;3.17;;;2.90;;
7747;SDS011;3918;42.564;23.164;2023-11-18T17:13:40;2.83;;;2.67;;
7747;SDS011;3918;42.564;23.164;2023-11-18T17:16:07;3.23;;;2.83;;
7747;SDS011;3918;42.564;23.164;2023-11-18T17:18:34;3.17;;;2.97;;
7747;SDS011;3918;42.564;23.164;2023-11-18T17:21:01;2.70;;;2.60;;
7747;SDS011;3918;42.564;23.164;2023-11-18T17:23:30;3.07;;;2.70;;
7747;SDS011;3918;42.564;23.164;2023-11-18T17:25:58;3.10;;;2.90;;
7747;SDS011;3918;42.564;23.164;2023-11-18T17:28:24;3.00;;;2.90;;
7747;SDS011;3918;42.564;23.164;2023-11-18T17:30:51;2.77;;;2.50;;
7747;SDS011;3918;42.564;23.164;2023-11-18T17:33:18;3.00;;;2.80;;
7747;SDS011;3918;42.564;23.164;2023-11-18T17:35:45;2.90;;;2.10;;
7747;SDS011;3918;42.564;23.164;2023-11-18T17:38:12;3.00;;;2.40;;
7747;SDS011;3918;42.564;23.164;2023-11-18T17:40:40;2.80;;;2.60;;
7747;SDS011;3918;42.564;23.164;2023-11-18T17:43:07;2.73;;;2.50;;
7747;SDS011;3918;42.564;23.164;2023-11-18T17:45:34;2.80;;;2.70;;
7747;SDS011;3918;42.564;23.164;2023-11-18T17:48:01;2.70;;;2.60;;
7747;SDS011;3918;42.564;23.164;2023-11-18T17:50:31;2.63;;;2.53;;
7747;SDS011;3918;42.564;23.164;2023-11-18T17:52:59;3.83;;;2.90;;
7747;SDS011;3918;42.564;23.164;2023-11-18T17:55:27;3.10;;;2.90;;
7747;SDS011;3918;42.564;23.164;2023-11-18T17:57:56;3.13;;;2.93;;
7747;SDS011;3918;42.564;23.164;2023-11-18T18:00:24;2.83;;;2.73;;
7747;SDS011;3918;42.564;23.164;2023-11-18T18:02:53;2.73;;;2.60;;
7747;SDS011;3918;42.564;23.164;2023-11-18T18:05:20;2.70;;;2.50;;
7747;SDS011;3918;42.564;23.164;2023-11-18T18:07:48;2.63;;;2.53;;
7747;SDS011;3918;42.564;23.164;2023-11-18T18:10:15;2.87;;;2.73;;
7747;SDS011;3918;42.564;23.164;2023-11-18T18:12:42;2.30;;;2.20;;
7747;SDS011;3918;42.564;23.164;2023-11-18T18:15:13;2.60;;;2.40;;
7747;SDS011;3918;42.564;23.164;2023-11-18T18:17:40;2.57;;;2.47;;
7747;SDS011;3918;42.564;23.164;2023-11-18T18:20:07;2.53;;;2.33;;
7747;SDS011;3918;42.564;23.164;2023-11-18T18:22:35;2.97;;;2.87;;
7747;SDS011;3918;42.564;23.164;2023-11-18T18:25:02;2.40;;;2.30;;
7747;SDS011;3918;42.564;23.164;2023-11-18T18:27:29;2.43;;;2.23;;
7747;SDS011;3918;42.564;23.164;2023-11-18T18:29:57;2.53;;;2.40;;
7747;SDS011;3918;42.564;23.164;2023-11-18T18:32:26;2.80;;;2.70;;
7747;SDS011;3918;42.564;23.164;2023-11-18T18:34:53;2.90;;;2.80;;
7747;SDS011;3918;42.564;23.164;2023-11-18T18:37:20;2.63;;;2.47;;
7747;SDS011;3918;42.564;23.164;2023-11-18T18:39:48;2.50;;;2.40;;
7747;SDS011;3918;42.564;23.164;2023-11-18T18:42:17;3.07;;;2.87;;
7747;SDS011;3918;42.564;23.164;2023-11-18T18:44:45;3.60;;;2.47;;
7747;SDS011;3918;42.564;23.164;2023-11-18T18:47:12;2.33;;;2.23;;
7747;SDS011;3918;42.564;23.164;2023-11-18T18:49:40;2.30;;;2.20;;
7747;SDS011;3918;42.564;23.164;2023-11-18T18:52:07;2.80;;;2.70;;
7747;SDS011;3918;42.564;23.164;2023-11-18T18:54:34;2.43;;;2.33;;
7747;SDS011;3918;42.564;23.164;2023-11-18T18:57:00;2.40;;;2.30;;
7747;SDS011;3918;42.564;23.164;2023-11-18T18:59:29;2.63;;;2.50;;
7747;SDS011;3918;42.564;23.164;2023-11-18T19:01:56;2.43;;;2.23;;
7747;SDS011;3918;42.564;23.164;2023-11-18T19:04:23;2.93;;;2.77;;
7747;SDS011;3918;42.564;23.164;2023-11-18T19:06:51;2.60;;;2.50;;
7747;SDS011;3918;42.564;23.164;2023-11-18T19:09:20;2.40;;;2.30;;
7747;SDS011;3918;42.564;23.164;2023-11-18T19:11:47;2.75;;;2.55;;
7747;SDS011;3918;42.564;23.164;2023-11-18T19:14:14;2.90;;;2.80;;
7747;SDS011;3918;42.564;23.164;2023-11-18T19:16:43;2.60;;;2.50;;
7747;SDS011;3918;42.564;23.164;2023-11-18T19:19:10;2.63;;;2.27;;
7747;SDS011;3918;42.564;23.164;2023-11-18T19:21:37;2.40;;;2.30;;
7747;SDS011;3918;42.564;23.164;2023-11-18T19:24:07;2.80;;;2.70;;
7747;SDS011;3918;42.564;23.164;2023-11-18T19:26:34;3.17;;;2.87;;
7747;SDS011;3918;42.564;23.164;2023-11-18T19:29:01;2.40;;;2.30;;
7747;SDS011;3918;42.564;23.164;2023-11-18T19:31:31;2.57;;;2.47;;
7747;SDS011;3918;42.564;23.164;2023-11-18T19:33:58;2.50;;;2.30;;
7747;SDS011;3918;42.564;23.164;2023-11-18T19:36:26;2.47;;;2.27;;
7747;SDS011;3918;42.564;23.164;2023-11-18T19:38:53;2.63;;;2.53;;
7747;SDS011;3918;42.564;23.164;2023-11-18T19:41:21;3.10;;;2.90;;
7747;SDS011;3918;42.564;23.164;2023-11-18T19:43:47;3.13;;;2.92;;
7747;SDS011;3918;42.564;23.164;2023-11-18T19:46:15;3.20;;;3.00;;
7747;SDS011;3918;42.564;23.164;2023-11-18T19:48:42;3.60;;;3.40;;
7747;SDS011;3918;42.564;23.164;2023-11-18T19:51:09;3.28;;;3.08;;
7747;SDS011;3918;42.564;23.164;2023-11-18T19:53:37;4.43;;;3.43;;
7747;SDS011;3918;42.564;23.164;2023-11-18T19:56:05;2.80;;;2.70;;
7747;SDS011;3918;42.564;23.164;2023-11-18T19:58:35;3.70;;;3.50;;
